createdAt,value
2019-02-14T00:00:13.454Z,6.00
2019-02-14T00:02:42.051Z,6.03
2019-02-14T00:05:16.146Z,5.97
2019-02-14T00:07:41.149Z,6.70
2019-02-14T00:10:10.425Z,6.23
2019-02-14T00:12:39.185Z,6.67
2019-02-14T00:15:11.208Z,6.13
2019-02-14T00:17:39.635Z,6.70
2019-02-14T00:20:09.908Z,5.50
2019-02-14T00:22:38.375Z,6.37
2019-02-14T00:25:10.386Z,6.00
2019-02-14T00:27:39.082Z,6.00
2019-02-14T00:30:10.084Z,5.90
2019-02-14T00:32:38.513Z,6.63
2019-02-14T00:35:07.380Z,7.40
2019-02-14T00:37:35.952Z,5.97
2019-02-14T00:40:06.606Z,5.77
2019-02-14T00:42:35.034Z,6.50
2019-02-14T00:45:03.498Z,6.37
2019-02-14T00:47:31.932Z,6.87
2019-02-14T00:50:00.430Z,6.60
2019-02-14T00:52:29.429Z,5.90
2019-02-14T00:54:57.881Z,5.97
2019-02-14T00:57:26.406Z,6.97
2019-02-14T00:59:54.869Z,7.27
2019-02-14T01:02:23.313Z,6.80
2019-02-14T01:04:51.757Z,7.37
2019-02-14T01:07:20.372Z,8.03
2019-02-14T01:09:48.813Z,8.97
2019-02-14T01:12:17.581Z,8.20
2019-02-14T01:14:46.425Z,6.60
2019-02-14T01:17:14.853Z,6.67
2019-02-14T01:19:43.280Z,6.73
2019-02-14T01:22:11.751Z,5.17
2019-02-14T01:24:40.173Z,5.47
2019-02-14T01:27:08.600Z,5.60
2019-02-14T01:29:37.414Z,6.43
2019-02-14T01:32:05.840Z,5.63
2019-02-14T01:34:34.627Z,6.17
2019-02-14T01:37:03.096Z,4.80
2019-02-14T01:39:31.521Z,5.17
2019-02-14T01:42:00.020Z,6.00
2019-02-14T01:44:29.348Z,5.33
2019-02-14T01:46:58.109Z,5.10
2019-02-14T01:50:06.487Z,4.63
2019-02-14T01:52:34.917Z,5.10
2019-02-14T02:00:51.357Z,5.30
2019-02-14T02:03:19.817Z,4.00
2019-02-14T02:05:50.879Z,5.10
2019-02-14T02:08:18.540Z,4.20
2019-02-14T02:13:40.352Z,4.60
2019-02-14T02:16:08.780Z,5.10
2019-02-14T02:21:32.152Z,4.23
2019-02-14T02:24:00.572Z,4.90
2019-02-14T02:26:29.072Z,4.87
2019-02-14T02:31:50.930Z,5.70
2019-02-14T02:34:19.774Z,4.40
2019-02-14T02:36:48.291Z,5.83
2019-02-14T02:39:17.032Z,4.10
2019-02-14T02:41:45.491Z,5.70
2019-02-14T02:44:13.919Z,6.03
2019-02-14T02:46:42.351Z,5.00
2019-02-14T02:49:10.845Z,7.07
2019-02-14T02:57:01.460Z,5.47
2019-02-14T02:59:29.953Z,5.33
2019-02-14T03:01:58.381Z,5.53
2019-02-14T03:07:33.786Z,6.37
2019-02-14T03:10:02.216Z,5.83
2019-02-14T03:12:50.061Z,6.03
2019-02-14T03:15:18.784Z,4.73
2019-02-14T03:17:47.216Z,5.77
2019-02-14T03:20:15.668Z,4.90
2019-02-14T03:23:03.509Z,6.00
2019-02-14T03:25:32.413Z,5.63
2019-02-14T03:28:01.163Z,5.90
2019-02-14T03:30:29.599Z,5.03
2019-02-14T03:32:58.433Z,5.50
2019-02-14T03:35:26.856Z,4.77
2019-02-14T03:37:55.284Z,5.60
2019-02-14T03:40:23.740Z,5.27
2019-02-14T03:43:11.359Z,5.00
2019-02-14T03:45:39.828Z,5.63
2019-02-14T03:48:08.258Z,6.50
2019-02-14T03:50:36.686Z,5.97
2019-02-14T03:53:05.144Z,4.57
2019-02-14T03:55:33.574Z,5.70
2019-02-14T03:58:02.004Z,5.23
2019-02-14T04:00:30.464Z,5.40
2019-02-14T04:02:58.892Z,5.27
2019-02-14T04:05:27.323Z,5.87
2019-02-14T04:07:55.775Z,6.33
2019-02-14T04:10:24.203Z,5.50
2019-02-14T04:12:52.634Z,7.30
2019-02-14T04:17:54.660Z,6.53
2019-02-14T04:20:23.225Z,6.40
2019-02-14T04:22:51.652Z,6.90
2019-02-14T04:25:20.090Z,6.13
2019-02-14T04:27:48.589Z,6.30
2019-02-14T04:30:36.255Z,5.70
2019-02-14T04:33:23.981Z,6.70
2019-02-14T04:35:52.415Z,7.07
2019-02-14T04:38:20.836Z,5.30
2019-02-14T04:41:08.619Z,5.77
2019-02-14T04:43:37.034Z,5.47
2019-02-14T04:46:05.465Z,6.17
2019-02-14T04:48:33.943Z,5.67
2019-02-14T04:51:02.367Z,5.37
2019-02-14T04:53:30.792Z,6.43
2019-02-14T04:55:59.243Z,4.93
2019-02-14T04:58:27.692Z,6.13
2019-02-14T05:00:56.475Z,5.73
2019-02-14T05:03:24.931Z,5.80
2019-02-14T05:05:53.354Z,6.17
2019-02-14T05:08:21.775Z,5.63
2019-02-14T05:13:24.685Z,4.80
2019-02-14T05:16:12.425Z,5.53
2019-02-14T05:18:40.941Z,6.47
2019-02-14T05:21:09.364Z,6.27
2019-02-14T05:23:37.819Z,6.00
2019-02-14T05:26:06.337Z,5.50
2019-02-14T05:28:34.769Z,5.60
2019-02-14T05:31:03.230Z,6.20
2019-02-14T05:33:31.747Z,5.90
2019-02-14T05:36:00.188Z,6.30
2019-02-14T05:38:28.980Z,5.57
2019-02-14T05:40:57.784Z,5.47
2019-02-14T05:43:26.225Z,5.60
2019-02-14T05:45:54.686Z,5.37
2019-02-14T05:48:23.112Z,5.67
2019-02-14T05:50:51.540Z,3.70
2019-02-14T05:53:19.991Z,4.77
2019-02-14T05:55:48.415Z,4.80
2019-02-14T05:58:16.868Z,4.90
2019-02-14T06:00:45.320Z,4.77
2019-02-14T06:03:13.836Z,4.20
2019-02-14T06:05:42.580Z,5.00
2019-02-14T06:08:11.032Z,4.90
2019-02-14T06:10:39.871Z,5.53
2019-02-14T06:13:08.640Z,4.87
2019-02-14T06:15:37.179Z,4.57
2019-02-14T06:18:05.603Z,4.73
2019-02-14T06:20:34.409Z,4.77
2019-02-14T06:23:03.279Z,4.77
2019-02-14T06:25:31.747Z,5.03
2019-02-14T06:28:00.176Z,4.40
2019-02-14T06:30:28.948Z,4.63
2019-02-14T06:32:57.372Z,5.60
2019-02-14T06:35:25.807Z,4.67
2019-02-14T06:38:34.744Z,4.53
2019-02-14T06:41:03.672Z,4.53
2019-02-14T06:43:52.624Z,4.83
2019-02-14T06:46:21.061Z,5.07
2019-02-14T06:48:49.860Z,5.70
2019-02-14T06:51:18.624Z,5.17
2019-02-14T06:53:47.056Z,5.07
2019-02-14T06:56:15.474Z,6.27
2019-02-14T06:58:43.935Z,5.60
2019-02-14T07:01:12.359Z,5.60
2019-02-14T07:03:41.626Z,5.30
2019-02-14T07:06:10.083Z,5.50
2019-02-14T07:08:38.513Z,7.03
2019-02-14T07:11:26.524Z,6.77
2019-02-14T07:13:54.951Z,6.90
2019-02-14T07:16:23.381Z,5.23
2019-02-14T07:18:51.837Z,6.17
2019-02-14T07:21:21.747Z,5.87
2019-02-14T07:23:51.001Z,5.13
2019-02-14T07:28:53.224Z,4.97
2019-02-14T07:31:21.652Z,6.50
2019-02-14T07:33:50.128Z,5.73
2019-02-14T07:36:18.639Z,5.47
2019-02-14T07:38:47.140Z,5.90
2019-02-14T07:41:15.591Z,6.57
2019-02-14T07:43:44.017Z,6.20
2019-02-14T07:46:12.445Z,6.77
2019-02-14T07:51:33.706Z,9.43
2019-02-14T07:54:02.181Z,9.70
2019-02-14T07:56:30.708Z,11.53
2019-02-14T07:58:59.140Z,9.60
2019-02-14T08:01:46.782Z,8.83
2019-02-14T08:04:15.214Z,8.37
2019-02-14T08:06:43.925Z,8.80
2019-02-14T08:09:12.397Z,7.63
2019-02-14T08:12:00.145Z,9.30
2019-02-14T08:14:28.692Z,9.50
2019-02-14T08:16:57.124Z,8.67
2019-02-14T08:19:25.583Z,9.20
2019-02-14T08:21:54.058Z,12.33
2019-02-14T08:24:22.490Z,9.47
2019-02-14T08:26:50.928Z,10.90
2019-02-14T08:29:19.391Z,10.40
2019-02-14T08:31:47.821Z,10.93
2019-02-14T08:37:24.546Z,8.47
2019-02-14T08:39:52.966Z,7.87
2019-02-14T08:42:21.399Z,8.10
2019-02-14T08:44:49.855Z,7.63
2019-02-14T08:47:18.612Z,9.50
2019-02-14T08:49:47.036Z,7.70
2019-02-14T08:52:15.490Z,7.37
2019-02-14T08:54:43.938Z,6.63
2019-02-14T08:57:12.361Z,7.83
2019-02-14T08:59:41.121Z,6.73
2019-02-14T09:02:09.551Z,7.20
2019-02-14T09:04:37.966Z,6.50
2019-02-14T09:07:06.417Z,6.00
2019-02-14T09:09:34.843Z,6.77
2019-02-14T09:12:03.633Z,7.73
2019-02-14T09:17:26.924Z,7.93
2019-02-14T09:19:55.351Z,8.30
2019-02-14T09:22:24.110Z,8.43
2019-02-14T09:24:52.666Z,7.33
2019-02-14T09:27:21.087Z,7.90
2019-02-14T09:29:49.530Z,6.77
2019-02-14T09:34:57.647Z,6.50
2019-02-14T09:37:26.043Z,6.43
2019-02-14T09:39:54.471Z,7.10
2019-02-14T09:42:22.915Z,7.80
2019-02-14T09:44:51.348Z,7.80
2019-02-14T09:47:19.773Z,8.00
2019-02-14T09:49:48.340Z,8.17
2019-02-14T09:52:17.149Z,9.30
2019-02-14T09:54:45.923Z,7.50
2019-02-14T10:02:29.434Z,7.10
2019-02-14T10:04:58.171Z,7.50
2019-02-14T10:07:26.938Z,8.10
2019-02-14T10:09:55.405Z,8.30
2019-02-14T10:12:43.295Z,8.20
2019-02-14T10:15:52.002Z,6.97
2019-02-14T10:18:20.424Z,8.37
2019-02-14T10:20:49.205Z,8.13
2019-02-14T10:23:18.090Z,8.93
2019-02-14T10:25:47.924Z,7.27
2019-02-14T10:28:16.343Z,7.60
2019-02-14T10:30:44.791Z,8.30
2019-02-14T10:33:13.215Z,8.90
2019-02-14T10:36:00.863Z,8.60
2019-02-14T10:38:29.283Z,7.70
2019-02-14T10:40:57.991Z,8.30
2019-02-14T10:46:00.503Z,9.80
2019-02-14T10:48:28.957Z,8.33
2019-02-14T10:50:57.379Z,7.93
2019-02-14T10:53:25.803Z,9.20
2019-02-14T10:55:54.333Z,10.87
2019-02-14T10:58:22.827Z,10.17
2019-02-14T11:00:51.256Z,11.07
2019-02-14T11:03:20.057Z,14.03
2019-02-14T11:06:08.122Z,13.07
2019-02-14T11:11:30.317Z,12.67
2019-02-14T11:16:32.412Z,11.80
2019-02-14T11:19:00.866Z,11.40
2019-02-14T11:21:29.611Z,11.30
2019-02-14T11:23:58.395Z,9.87
2019-02-14T11:26:26.849Z,10.67
2019-02-14T11:28:55.581Z,11.97
2019-02-14T11:31:23.989Z,11.77
2019-02-14T11:36:26.381Z,12.30
2019-02-14T11:38:54.816Z,13.43
2019-02-14T11:43:57.653Z,13.73
2019-02-14T11:46:26.210Z,12.97
2019-02-14T11:48:54.641Z,12.13
2019-02-14T11:54:16.573Z,12.47
2019-02-14T11:56:45.040Z,13.13
2019-02-14T11:59:13.474Z,13.47
2019-02-14T12:01:41.991Z,12.73
2019-02-14T12:04:10.444Z,13.53
2019-02-14T12:06:38.971Z,12.83
2019-02-14T12:09:07.455Z,12.63
2019-02-14T12:11:36.004Z,12.53
2019-02-14T12:14:04.788Z,13.50
2019-02-14T12:16:33.303Z,12.83
2019-02-14T12:19:01.861Z,12.80
2019-02-14T12:21:30.290Z,11.57
2019-02-14T12:23:59.008Z,12.67
2019-02-14T12:26:46.585Z,13.17
2019-02-14T12:29:34.230Z,12.40
2019-02-14T12:32:02.709Z,12.70
2019-02-14T12:34:31.176Z,12.57
2019-02-14T12:37:18.994Z,13.00
2019-02-14T12:39:47.426Z,12.13
2019-02-14T12:42:15.853Z,12.37
2019-02-14T12:47:18.321Z,12.20
2019-02-14T12:49:46.870Z,11.90
2019-02-14T12:52:15.296Z,10.40
2019-02-14T12:54:44.068Z,10.87
2019-02-14T12:57:12.545Z,12.27
2019-02-14T12:59:40.974Z,10.03
2019-02-14T13:02:28.616Z,12.03
2019-02-14T13:04:57.149Z,11.27
2019-02-14T13:07:25.580Z,11.90
2019-02-14T13:10:13.444Z,12.10
2019-02-14T13:12:41.960Z,10.03
2019-02-14T13:15:50.331Z,10.13
2019-02-14T13:18:19.044Z,9.43
2019-02-14T13:20:47.477Z,10.43
2019-02-14T13:23:16.007Z,10.20
2019-02-14T13:25:44.446Z,10.90
2019-02-14T13:28:32.225Z,11.23
2019-02-14T13:31:00.667Z,9.50
2019-02-14T13:33:29.389Z,10.10
2019-02-14T13:36:17.284Z,9.53
2019-02-14T13:38:45.810Z,9.37
2019-02-14T13:41:33.593Z,9.87
2019-02-14T13:44:02.108Z,9.17
2019-02-14T13:46:30.808Z,10.10
2019-02-14T13:48:59.274Z,8.50
2019-02-14T13:51:27.698Z,8.20
2019-02-14T13:54:15.489Z,8.37
2019-02-14T13:56:54.031Z,8.27
2019-02-14T14:01:56.774Z,8.37
2019-02-14T14:04:25.292Z,8.60
2019-02-14T14:06:53.725Z,9.87
2019-02-14T14:09:22.190Z,10.33
2019-02-14T14:11:50.621Z,9.00
2019-02-14T14:14:19.143Z,9.67
2019-02-14T14:19:21.944Z,10.10
2019-02-14T14:21:50.733Z,10.60
2019-02-14T14:24:19.254Z,9.90
2019-02-14T14:26:47.680Z,9.60
2019-02-14T14:29:16.459Z,10.50
2019-02-14T14:31:44.976Z,11.53
2019-02-14T14:34:13.409Z,10.70
2019-02-14T14:39:16.432Z,9.97
2019-02-14T14:41:44.995Z,10.57
2019-02-14T14:47:02.871Z,10.67
2019-02-14T14:49:31.303Z,12.80
2019-02-14T14:51:59.734Z,11.83
2019-02-14T14:54:28.194Z,10.93
2019-02-14T14:56:56.620Z,11.37
2019-02-14T14:59:25.377Z,10.97
2019-02-14T15:01:54.164Z,11.17
2019-02-14T15:04:22.952Z,11.50
2019-02-14T15:06:51.381Z,10.60
2019-02-14T15:09:19.840Z,11.20
2019-02-14T15:11:48.270Z,11.53
2019-02-14T15:14:16.792Z,10.10
2019-02-14T15:16:45.325Z,10.40
2019-02-14T15:19:13.757Z,12.20
2019-02-14T15:21:42.545Z,11.80
2019-02-14T15:24:11.313Z,10.50
2019-02-14T15:26:40.106Z,10.97
2019-02-14T15:29:08.912Z,11.20
2019-02-14T15:31:37.476Z,10.63
2019-02-14T15:34:06.264Z,11.63
2019-02-14T15:36:34.692Z,10.20
2019-02-14T15:41:39.081Z,10.57
2019-02-14T15:44:07.516Z,10.00
2019-02-14T15:46:35.964Z,10.20
2019-02-14T15:49:25.406Z,10.70
2019-02-14T15:51:54.200Z,10.93
2019-02-14T15:54:22.657Z,11.77
2019-02-14T15:56:53.148Z,11.30
2019-02-14T15:59:42.991Z,10.00
2019-02-14T16:02:10.916Z,9.30
2019-02-14T16:04:39.655Z,9.90
2019-02-14T16:07:08.071Z,9.30
2019-02-14T16:09:38.864Z,11.70
2019-02-14T16:12:06.782Z,11.20
2019-02-14T16:14:54.613Z,10.70
2019-02-14T16:17:23.352Z,9.83
2019-02-14T16:19:51.782Z,9.97
2019-02-14T16:24:54.342Z,10.10
2019-02-14T16:27:24.535Z,10.90
2019-02-14T16:29:53.143Z,9.97
2019-02-14T16:32:21.572Z,8.83
2019-02-14T16:34:49.998Z,10.80
2019-02-14T16:37:18.541Z,10.40
2019-02-14T16:39:51.842Z,10.40
2019-02-14T16:42:17.123Z,10.67
2019-02-14T16:47:20.067Z,11.17
2019-02-14T16:49:48.508Z,9.80
2019-02-14T16:52:17.049Z,9.83
2019-02-14T16:54:45.528Z,10.20
2019-02-14T16:57:13.995Z,9.93
2019-02-14T16:59:42.830Z,10.03
2019-02-14T17:02:11.355Z,10.33
2019-02-14T17:04:59.056Z,9.60
2019-02-14T17:10:15.019Z,8.00
2019-02-14T17:12:43.452Z,10.33
2019-02-14T17:15:31.493Z,8.93
2019-02-14T17:17:59.922Z,10.30
2019-02-14T17:20:28.703Z,9.33
2019-02-14T17:22:57.170Z,8.90
2019-02-14T17:25:45.149Z,9.77
2019-02-14T17:28:13.911Z,9.43
2019-02-14T17:30:42.448Z,9.90
2019-02-14T17:33:10.865Z,9.53
2019-02-14T17:35:39.321Z,10.53
2019-02-14T17:38:07.757Z,10.60
2019-02-14T17:40:36.176Z,9.77
2019-02-14T17:45:57.836Z,9.23
2019-02-14T17:48:26.668Z,9.90
2019-02-14T17:50:56.773Z,11.10
2019-02-14T17:53:25.557Z,9.53
2019-02-14T17:55:53.993Z,10.20
2019-02-14T17:58:22.453Z,10.03
2019-02-14T18:00:50.887Z,10.67
2019-02-14T18:03:19.718Z,10.47
2019-02-14T18:05:48.289Z,11.70
2019-02-14T18:08:35.843Z,10.80
2019-02-14T18:13:39.011Z,12.60
2019-02-14T18:16:07.795Z,9.87
2019-02-14T18:18:36.261Z,9.80
2019-02-14T18:21:04.778Z,10.93
2019-02-14T18:23:33.237Z,10.60
2019-02-14T18:26:02.526Z,10.80
2019-02-14T18:28:30.955Z,12.13
2019-02-14T18:31:18.738Z,11.63
2019-02-14T18:34:06.550Z,13.70
2019-02-14T18:36:54.354Z,15.63
2019-02-14T18:39:42.141Z,12.03
2019-02-14T18:42:30.428Z,13.00
2019-02-14T18:45:19.543Z,14.23
2019-02-14T18:48:07.225Z,16.87
2019-02-14T18:50:35.719Z,14.47
2019-02-14T18:53:23.552Z,17.37
2019-02-14T18:56:11.338Z,16.53
2019-02-14T19:04:46.771Z,14.83
2019-02-14T19:07:15.223Z,16.77
2019-02-14T19:09:44.713Z,13.50
2019-02-14T19:12:32.624Z,13.13
2019-02-14T19:15:20.281Z,13.97
2019-02-14T19:17:49.107Z,13.60
2019-02-14T19:20:36.907Z,13.30
2019-02-14T19:25:59.092Z,14.13
2019-02-14T19:28:46.993Z,13.17
2019-02-14T19:31:15.533Z,12.17
2019-02-14T19:34:03.453Z,12.90
2019-02-14T19:36:31.970Z,12.40
2019-02-14T19:39:00.406Z,11.50
2019-02-14T19:41:28.963Z,13.47
2019-02-14T19:44:16.713Z,12.70
2019-02-14T19:46:45.251Z,12.30
2019-02-14T19:49:33.026Z,13.17
2019-02-14T19:52:20.791Z,11.73
2019-02-14T19:58:36.889Z,12.40
2019-02-14T20:01:06.329Z,11.70
2019-02-14T20:03:35.271Z,12.20
2019-02-14T20:06:03.930Z,12.90
2019-02-14T20:08:32.476Z,12.10
2019-02-14T20:11:01.438Z,12.13
2019-02-14T20:13:30.707Z,12.63
2019-02-14T20:15:59.267Z,13.27
2019-02-14T20:18:28.233Z,12.30
2019-02-14T20:20:56.798Z,13.07
2019-02-14T20:23:25.574Z,12.30
2019-02-14T20:25:54.386Z,12.00
2019-02-14T20:28:23.356Z,11.80
2019-02-14T20:30:52.153Z,12.90
2019-02-14T20:33:21.562Z,13.90
2019-02-14T20:35:50.302Z,11.50
2019-02-14T20:38:20.692Z,11.50
2019-02-14T20:40:49.633Z,11.20
2019-02-14T20:43:18.283Z,11.80
2019-02-14T20:45:47.132Z,8.80
2019-02-14T20:48:15.779Z,10.47
2019-02-14T20:50:44.501Z,10.97
2019-02-14T20:53:13.666Z,10.60
2019-02-14T20:55:42.282Z,10.63
2019-02-14T20:58:11.242Z,11.63
2019-02-14T21:00:41.735Z,11.57
2019-02-14T21:03:10.632Z,11.37
2019-02-14T21:05:40.367Z,11.90
2019-02-14T21:08:09.358Z,11.40
2019-02-14T21:10:38.010Z,14.47
2019-02-14T21:13:06.724Z,14.20
2019-02-14T21:15:35.682Z,13.70
2019-02-14T21:18:06.266Z,13.20
2019-02-14T21:20:35.001Z,14.33
2019-02-14T21:23:03.540Z,13.70
2019-02-14T21:25:32.055Z,14.40
2019-02-14T21:28:00.579Z,12.23
2019-02-14T21:30:29.069Z,12.20
2019-02-14T21:32:57.777Z,13.50
2019-02-14T21:35:26.463Z,11.90
2019-02-14T21:37:55.002Z,13.40
2019-02-14T21:40:23.744Z,11.20
2019-02-14T21:42:52.378Z,11.33
2019-02-14T21:45:21.166Z,12.03
2019-02-14T21:47:49.887Z,11.03
2019-02-14T21:50:19.206Z,9.97
2019-02-14T21:52:47.643Z,12.50
2019-02-14T21:55:17.386Z,10.60
2019-02-14T21:57:46.659Z,11.07
2019-02-14T22:00:26.494Z,10.97
2019-02-14T22:02:54.994Z,11.17
2019-02-14T22:05:25.815Z,11.30
2019-02-14T22:07:54.000Z,11.00
2019-02-14T22:10:23.444Z,11.00
2019-02-14T22:12:51.949Z,10.03
2019-02-14T22:15:25.749Z,10.30
2019-02-14T22:17:54.615Z,10.87
2019-02-14T22:20:23.395Z,10.60
2019-02-14T22:22:52.148Z,10.40
2019-02-14T22:25:21.309Z,9.40
2019-02-14T22:27:50.032Z,10.00
2019-02-14T22:30:18.662Z,10.40
2019-02-14T22:32:47.893Z,9.80
2019-02-14T22:35:16.604Z,11.23
2019-02-14T22:37:45.041Z,11.03
2019-02-14T22:40:14.622Z,11.80
2019-02-14T22:42:47.142Z,11.30
2019-02-14T22:45:15.072Z,11.37
2019-02-14T22:47:45.054Z,10.43
2019-02-14T22:50:14.413Z,12.60
2019-02-14T22:52:42.926Z,10.80
2019-02-14T22:55:13.312Z,11.90
2019-02-14T22:57:41.924Z,11.67
2019-02-14T23:00:13.668Z,11.87
2019-02-14T23:02:42.403Z,10.97
2019-02-14T23:05:12.198Z,10.90
2019-02-14T23:07:41.136Z,10.80
2019-02-14T23:10:10.128Z,10.13
2019-02-14T23:12:38.977Z,11.37
2019-02-14T23:15:08.538Z,11.67
2019-02-14T23:17:38.966Z,11.50
2019-02-14T23:20:07.697Z,9.90
2019-02-14T23:22:36.536Z,11.27
2019-02-14T23:25:06.037Z,11.50
2019-02-14T23:27:34.738Z,10.30
2019-02-14T23:30:03.616Z,10.97
2019-02-14T23:32:32.333Z,9.80
2019-02-14T23:35:01.697Z,10.73
2019-02-14T23:37:30.989Z,12.60
2019-02-14T23:40:00.273Z,10.93
2019-02-14T23:42:28.631Z,9.80
2019-02-14T23:44:57.331Z,11.57
2019-02-14T23:47:26.415Z,10.03
2019-02-14T23:49:55.630Z,9.70
2019-02-14T23:52:24.347Z,10.43
2019-02-14T23:54:53.117Z,10.87
2019-02-14T23:57:21.841Z,9.90
2019-02-14T23:59:50.517Z,9.90
